createdAt,value
2019-05-07T00:02:07.913Z,35.93
2019-05-07T00:04:36.250Z,38.13
2019-05-07T00:07:04.777Z,34.87
2019-05-07T00:09:33.135Z,36.63
2019-05-07T00:12:02.776Z,33.77
2019-05-07T00:14:32.018Z,32.40
2019-05-07T00:17:02.250Z,31.80
2019-05-07T00:19:32.446Z,35.40
2019-05-07T00:22:02.402Z,35.33
2019-05-07T00:24:32.971Z,35.27
2019-05-07T00:27:02.815Z,34.80
2019-05-07T00:29:32.144Z,35.67
2019-05-07T00:32:02.977Z,40.90
2019-05-07T00:34:37.218Z,35.97
2019-05-07T00:37:15.342Z,39.90
2019-05-07T00:40:06.899Z,37.47
2019-05-07T00:42:54.430Z,40.37
2019-05-07T00:45:28.918Z,39.20
2019-05-07T00:47:57.247Z,38.70
2019-05-07T00:50:30.479Z,36.40
2019-05-07T00:52:59.066Z,39.40
2019-05-07T00:55:27.407Z,38.33
2019-05-07T00:57:55.734Z,34.70
2019-05-07T01:00:24.079Z,39.77
2019-05-07T01:02:52.672Z,40.80
2019-05-07T01:05:23.066Z,39.47
2019-05-07T01:07:52.903Z,37.30
2019-05-07T01:10:22.247Z,44.63
2019-05-07T01:12:52.989Z,43.77
2019-05-07T01:15:28.786Z,41.40
2019-05-07T01:17:52.057Z,43.47
2019-05-07T01:20:22.168Z,38.63
2019-05-07T01:22:54.172Z,44.70
2019-05-07T01:25:22.099Z,38.20
2019-05-07T01:27:53.181Z,34.40
2019-05-07T01:30:23.060Z,33.50
2019-05-07T01:32:55.794Z,33.87
2019-05-07T01:35:42.385Z,35.53
2019-05-07T01:38:12.312Z,35.60
2019-05-07T01:40:42.713Z,32.77
2019-05-07T01:43:12.073Z,30.43
2019-05-07T01:45:49.241Z,33.07
2019-05-07T01:48:14.378Z,30.97
2019-05-07T01:50:42.956Z,25.73
2019-05-07T01:53:12.245Z,20.63
2019-05-07T01:55:42.737Z,18.13
2019-05-07T01:58:12.595Z,20.33
2019-05-07T02:00:42.394Z,18.63
2019-05-07T02:03:29.981Z,23.87
2019-05-07T02:06:13.052Z,23.93
2019-05-07T02:08:49.981Z,22.30
2019-05-07T02:11:21.898Z,20.90
2019-05-07T02:13:50.257Z,24.70
2019-05-07T02:16:18.621Z,24.40
2019-05-07T02:18:47.291Z,20.37
2019-05-07T02:21:15.641Z,23.73
2019-05-07T02:23:43.964Z,23.13
2019-05-07T02:26:13.337Z,23.37
2019-05-07T02:28:42.615Z,23.20
2019-05-07T02:31:14.646Z,21.73
2019-05-07T02:33:43.358Z,21.73
2019-05-07T02:36:14.246Z,16.70
2019-05-07T02:38:55.779Z,18.10
2019-05-07T02:41:27.436Z,17.03
2019-05-07T02:43:59.636Z,19.13
2019-05-07T02:46:47.784Z,19.20
2019-05-07T02:49:32.684Z,17.80
2019-05-07T02:52:06.564Z,21.73
2019-05-07T02:54:53.964Z,19.37
2019-05-07T02:57:24.073Z,22.43
2019-05-07T02:59:54.455Z,20.97
2019-05-07T03:02:24.076Z,20.50
2019-05-07T03:04:53.345Z,19.13
2019-05-07T03:07:24.160Z,22.63
2019-05-07T03:09:53.884Z,21.27
2019-05-07T03:12:23.688Z,17.83
2019-05-07T03:14:53.698Z,19.97
2019-05-07T03:17:24.731Z,18.07
2019-05-07T03:19:53.649Z,16.90
2019-05-07T03:22:23.243Z,20.07
2019-05-07T03:24:56.433Z,14.17
2019-05-07T03:27:24.774Z,16.13
2019-05-07T03:30:06.036Z,14.37
2019-05-07T03:32:40.238Z,11.77
2019-05-07T03:35:28.534Z,10.10
2019-05-07T03:37:57.134Z,9.60
2019-05-07T03:40:25.486Z,8.90
2019-05-07T03:42:53.903Z,8.10
2019-05-07T03:45:33.580Z,8.90
2019-05-07T03:48:16.315Z,11.03
2019-05-07T03:50:44.740Z,10.87
2019-05-07T03:53:14.345Z,10.43
2019-05-07T03:55:44.653Z,8.67
2019-05-07T03:58:14.638Z,9.80
2019-05-07T04:00:44.226Z,13.80
2019-05-07T04:03:16.402Z,10.33
2019-05-07T04:05:43.715Z,10.30
2019-05-07T04:08:13.341Z,8.70
2019-05-07T04:10:44.143Z,9.20
2019-05-07T04:13:13.381Z,8.30
2019-05-07T04:15:44.075Z,9.30
2019-05-07T04:18:13.067Z,9.40
2019-05-07T04:20:43.501Z,15.40
2019-05-07T04:23:13.761Z,11.23
2019-05-07T04:26:16.949Z,12.13
2019-05-07T04:28:54.205Z,16.37
2019-05-07T04:31:24.131Z,17.53
2019-05-07T04:33:53.388Z,11.10
2019-05-07T04:36:25.317Z,13.27
2019-05-07T04:38:53.672Z,16.97
2019-05-07T04:41:23.411Z,14.13
2019-05-07T04:43:54.022Z,15.37
2019-05-07T04:46:23.522Z,13.43
2019-05-07T04:48:52.823Z,15.30
2019-05-07T04:51:28.237Z,15.30
2019-05-07T04:53:56.603Z,17.13
2019-05-07T04:56:25.057Z,14.37
2019-05-07T04:58:53.500Z,16.20
2019-05-07T05:01:23.756Z,15.70
2019-05-07T05:03:54.013Z,15.87
2019-05-07T05:06:24.229Z,14.53
2019-05-07T05:08:56.023Z,20.33
2019-05-07T05:11:23.650Z,16.40
2019-05-07T05:13:53.225Z,14.63
2019-05-07T05:16:26.126Z,17.30
2019-05-07T05:18:55.443Z,18.93
2019-05-07T05:21:52.830Z,28.87
2019-05-07T05:24:26.096Z,21.47
2019-05-07T05:26:54.485Z,16.40
2019-05-07T05:29:22.947Z,16.20
2019-05-07T05:31:52.893Z,16.80
2019-05-07T05:34:22.263Z,13.80
2019-05-07T05:36:52.622Z,16.40
2019-05-07T05:39:22.467Z,16.37
2019-05-07T05:41:55.219Z,21.00
2019-05-07T05:44:32.006Z,19.27
2019-05-07T05:47:02.388Z,19.90
2019-05-07T05:49:32.189Z,20.40
2019-05-07T05:52:26.556Z,15.57
2019-05-07T05:54:58.867Z,18.23
2019-05-07T05:57:45.192Z,19.07
2019-05-07T06:00:32.854Z,17.93
2019-05-07T06:03:26.443Z,15.80
2019-05-07T06:06:04.261Z,15.53
2019-05-07T06:08:43.280Z,12.63
2019-05-07T06:11:16.546Z,13.70
2019-05-07T06:14:03.098Z,14.20
2019-05-07T06:16:36.697Z,14.47
2019-05-07T06:19:13.053Z,13.90
2019-05-07T06:22:01.975Z,20.07
2019-05-07T06:24:37.489Z,10.47
2019-05-07T06:27:06.302Z,14.83
2019-05-07T06:29:34.841Z,15.00
2019-05-07T06:32:04.811Z,18.10
2019-05-07T06:34:34.246Z,9.87
2019-05-07T06:37:02.762Z,12.90
2019-05-07T06:39:42.129Z,10.20
2019-05-07T06:42:27.718Z,17.27
2019-05-07T06:45:07.409Z,7.97
2019-05-07T06:47:35.888Z,6.07
2019-05-07T06:50:04.503Z,9.57
2019-05-07T06:52:33.115Z,11.00
2019-05-07T06:55:03.352Z,8.37
2019-05-07T06:57:33.029Z,15.70
2019-05-07T07:00:04.918Z,14.80
2019-05-07T07:03:02.077Z,8.63
2019-05-07T07:05:48.683Z,8.67
2019-05-07T07:08:23.086Z,12.93
2019-05-07T07:11:07.243Z,11.00
2019-05-07T07:13:35.572Z,8.20
2019-05-07T07:16:04.408Z,11.20
2019-05-07T07:18:32.726Z,8.70
2019-05-07T07:21:02.301Z,9.70
2019-05-07T07:23:32.313Z,7.37
2019-05-07T07:26:03.207Z,8.60
2019-05-07T07:28:32.637Z,10.40
2019-05-07T07:31:26.191Z,4.80
2019-05-07T07:33:54.606Z,10.03
2019-05-07T07:36:24.943Z,9.17
2019-05-07T07:38:53.304Z,11.40
2019-05-07T07:41:43.501Z,5.00
2019-05-07T07:44:13.216Z,8.20
2019-05-07T07:46:42.516Z,4.00
2019-05-07T07:49:14.776Z,11.93
2019-05-07T07:51:45.081Z,7.37
2019-05-07T07:54:13.080Z,6.00
2019-05-07T07:56:57.644Z,6.27
2019-05-07T07:59:42.008Z,5.90
2019-05-07T08:02:17.398Z,7.93
2019-05-07T08:04:45.728Z,4.83
2019-05-07T08:07:14.159Z,6.03
2019-05-07T08:09:42.896Z,2.20
2019-05-07T08:12:12.730Z,3.27
2019-05-07T08:14:42.727Z,6.63
2019-05-07T08:17:12.983Z,4.87
2019-05-07T08:19:42.895Z,4.10
2019-05-07T08:22:12.138Z,4.33
2019-05-07T08:24:42.611Z,5.80
2019-05-07T08:27:12.836Z,3.33
2019-05-07T08:29:42.962Z,8.27
2019-05-07T08:32:45.533Z,3.47
2019-05-07T08:35:36.323Z,9.67
2019-05-07T08:38:04.761Z,4.13
2019-05-07T08:40:33.204Z,3.10
2019-05-07T08:43:03.281Z,4.60
2019-05-07T08:45:49.575Z,4.83
2019-05-07T08:48:22.900Z,7.33
2019-05-07T08:50:52.504Z,8.00
2019-05-07T08:53:22.514Z,5.67
2019-05-07T08:55:52.655Z,6.47
2019-05-07T08:58:22.362Z,6.07
2019-05-07T09:00:52.358Z,5.33
2019-05-07T09:03:38.666Z,3.33
2019-05-07T09:06:07.196Z,7.03
2019-05-07T09:08:35.647Z,4.20
2019-05-07T09:11:04.047Z,4.13
2019-05-07T09:13:33.330Z,2.37
2019-05-07T09:16:02.432Z,2.97
2019-05-07T09:18:32.238Z,7.83
2019-05-07T09:21:02.172Z,6.53
2019-05-07T09:23:31.877Z,5.23
2019-05-07T09:26:02.628Z,6.17
2019-05-07T09:28:52.391Z,2.80
2019-05-07T09:31:27.920Z,6.60
2019-05-07T09:33:56.732Z,4.33
2019-05-07T09:36:32.138Z,3.80
2019-05-07T09:39:00.219Z,5.70
2019-05-07T09:41:28.530Z,3.80
2019-05-07T09:43:57.387Z,5.23
2019-05-07T09:46:26.095Z,3.27
2019-05-07T09:48:54.567Z,3.50
2019-05-07T09:51:23.368Z,3.13
2019-05-07T09:53:52.104Z,4.07
2019-05-07T09:56:22.473Z,2.67
2019-05-07T09:58:53.061Z,6.40
2019-05-07T10:01:23.540Z,7.57
2019-05-07T10:03:51.820Z,5.10
2019-05-07T10:06:22.814Z,11.03
2019-05-07T10:08:52.408Z,6.73
2019-05-07T10:11:32.714Z,5.60
2019-05-07T10:14:04.332Z,4.33
2019-05-07T10:16:42.290Z,4.63
2019-05-07T10:19:10.962Z,5.80
2019-05-07T10:21:39.469Z,4.93
2019-05-07T10:24:08.148Z,4.13
2019-05-07T10:26:36.482Z,3.17
2019-05-07T10:29:05.109Z,5.23
2019-05-07T10:31:33.426Z,4.33
2019-05-07T10:34:03.023Z,6.60
2019-05-07T10:36:32.125Z,3.70
2019-05-07T10:39:02.477Z,5.00
2019-05-07T10:41:31.857Z,3.20
2019-05-07T10:44:02.432Z,7.90
2019-05-07T10:46:56.321Z,4.30
2019-05-07T10:49:31.857Z,5.27
2019-05-07T10:52:02.046Z,5.87
2019-05-07T10:54:30.310Z,5.00
2019-05-07T10:56:58.629Z,7.83
2019-05-07T10:59:27.294Z,6.93
2019-05-07T11:02:05.457Z,3.73
2019-05-07T11:04:42.114Z,9.33
2019-05-07T11:07:04.295Z,7.93
2019-05-07T11:09:32.886Z,11.10
2019-05-07T11:12:02.533Z,5.63
2019-05-07T11:14:32.132Z,3.90
2019-05-07T11:17:26.061Z,2.80
2019-05-07T11:19:54.763Z,3.90
2019-05-07T11:22:23.411Z,5.57
2019-05-07T11:24:52.256Z,3.20
2019-05-07T11:27:22.414Z,4.73
2019-05-07T11:29:50.943Z,4.40
2019-05-07T11:32:19.249Z,3.93
2019-05-07T11:34:48.281Z,3.17
2019-05-07T11:37:17.069Z,7.67
2019-05-07T11:39:45.419Z,3.53
2019-05-07T11:42:42.699Z,4.80
2019-05-07T11:45:17.078Z,3.90
2019-05-07T11:47:45.717Z,6.30
2019-05-07T11:50:37.527Z,6.80
2019-05-07T11:53:07.881Z,3.67
2019-05-07T11:55:36.588Z,8.50
2019-05-07T11:58:04.987Z,5.10
2019-05-07T12:00:42.605Z,6.30
2019-05-07T12:03:11.061Z,2.83
2019-05-07T12:05:39.408Z,4.40
2019-05-07T12:08:07.803Z,4.37
2019-05-07T12:10:36.168Z,4.60
2019-05-07T12:13:05.060Z,4.40
2019-05-07T12:15:33.395Z,6.73
2019-05-07T12:18:03.035Z,5.47
2019-05-07T12:20:32.457Z,3.27
2019-05-07T12:23:02.903Z,4.37
2019-05-07T12:25:32.062Z,2.40
2019-05-07T12:28:02.511Z,7.73
2019-05-07T12:30:56.084Z,7.47
2019-05-07T12:33:42.872Z,5.10
2019-05-07T12:36:12.645Z,3.63
2019-05-07T12:38:41.737Z,7.10
2019-05-07T12:41:28.716Z,6.33
2019-05-07T12:43:57.806Z,5.07
2019-05-07T12:46:26.214Z,2.40
2019-05-07T12:48:54.552Z,2.47
2019-05-07T12:51:33.484Z,4.70
2019-05-07T12:54:03.961Z,5.43
2019-05-07T12:56:32.306Z,4.13
2019-05-07T12:59:02.174Z,4.07
2019-05-07T13:01:45.145Z,3.40
2019-05-07T13:04:17.514Z,5.40
2019-05-07T13:07:05.119Z,4.20
2019-05-07T13:09:48.098Z,3.70
2019-05-07T13:12:16.867Z,4.10
2019-05-07T13:14:45.186Z,10.27
2019-05-07T13:17:13.591Z,3.67
2019-05-07T13:19:42.107Z,4.70
2019-05-07T13:22:12.425Z,5.40
2019-05-07T13:24:42.559Z,5.30
2019-05-07T13:27:10.795Z,5.93
2019-05-07T13:29:39.177Z,3.33
2019-05-07T13:32:09.210Z,6.07
2019-05-07T13:34:37.946Z,2.93
2019-05-07T13:37:12.733Z,3.93
2019-05-07T13:39:46.907Z,6.57
2019-05-07T13:42:46.563Z,4.50
2019-05-07T13:45:23.807Z,5.37
2019-05-07T13:48:02.732Z,8.87
2019-05-07T13:50:32.538Z,6.27
2019-05-07T13:53:01.755Z,5.10
2019-05-07T13:55:32.259Z,4.60
2019-05-07T13:58:00.580Z,3.43
2019-05-07T14:00:33.894Z,4.90
2019-05-07T14:03:03.291Z,6.97
2019-05-07T14:05:32.343Z,3.40
2019-05-07T14:08:04.446Z,5.77
2019-05-07T14:10:32.096Z,5.93
2019-05-07T14:13:11.188Z,3.77
2019-05-07T14:15:34.852Z,5.53
2019-05-07T14:18:02.616Z,5.77
2019-05-07T14:20:33.076Z,6.37
2019-05-07T14:23:01.311Z,4.90
2019-05-07T14:25:29.829Z,7.00
2019-05-07T14:27:58.908Z,4.70
2019-05-07T14:30:27.462Z,3.33
2019-05-07T14:33:12.434Z,4.23
2019-05-07T14:35:58.818Z,3.70
2019-05-07T14:38:32.206Z,3.63
2019-05-07T14:41:02.517Z,4.70
2019-05-07T14:43:37.595Z,4.90
2019-05-07T14:46:05.993Z,3.87
2019-05-07T14:48:36.191Z,4.33
2019-05-07T14:51:04.586Z,3.30
2019-05-07T14:53:33.001Z,3.10
2019-05-07T14:56:01.553Z,5.10
2019-05-07T14:58:31.839Z,5.20
2019-05-07T15:01:02.265Z,10.73
2019-05-07T15:03:31.904Z,4.43
2019-05-07T15:06:02.070Z,5.10
2019-05-07T15:08:32.315Z,3.50
2019-05-07T15:11:02.734Z,4.60
2019-05-07T15:13:32.306Z,4.90
2019-05-07T15:16:02.949Z,6.20
2019-05-07T15:18:48.789Z,3.63
2019-05-07T15:21:17.260Z,5.80
2019-05-07T15:23:45.890Z,5.13
2019-05-07T15:26:14.411Z,3.90
2019-05-07T15:28:44.931Z,5.10
2019-05-07T15:31:16.248Z,5.10
2019-05-07T15:33:44.754Z,4.73
2019-05-07T15:36:13.149Z,5.20
2019-05-07T15:38:42.880Z,3.37
2019-05-07T15:41:12.148Z,6.87
2019-05-07T15:43:43.795Z,4.57
2019-05-07T15:46:12.161Z,4.60
2019-05-07T15:48:42.021Z,5.80
2019-05-07T15:51:11.888Z,3.47
2019-05-07T15:53:45.683Z,7.93
2019-05-07T15:56:14.022Z,2.73
2019-05-07T15:58:42.687Z,7.83
2019-05-07T16:01:12.887Z,4.77
2019-05-07T16:03:43.215Z,2.87
2019-05-07T16:08:49.180Z,8.00
2019-05-07T16:09:38.308Z,4.43
2019-05-07T16:11:17.828Z,10.07
2019-05-07T16:14:04.414Z,3.40
2019-05-07T16:16:33.341Z,4.53
2019-05-07T16:19:05.184Z,6.10
2019-05-07T16:21:33.518Z,4.97
2019-05-07T16:24:03.898Z,4.23
2019-05-07T16:26:32.672Z,4.63
2019-05-07T16:29:04.287Z,2.90
2019-05-07T16:31:33.283Z,4.40
2019-05-07T16:34:02.559Z,3.20
2019-05-07T16:36:32.877Z,2.93
2019-05-07T16:39:03.260Z,3.23
2019-05-07T16:41:31.913Z,3.43
2019-05-07T16:44:02.699Z,3.80
2019-05-07T16:46:30.738Z,3.00
2019-05-07T16:48:59.081Z,4.57
2019-05-07T16:51:27.866Z,3.50
2019-05-07T16:53:56.587Z,2.83
2019-05-07T16:56:25.301Z,7.07
2019-05-07T16:59:07.477Z,3.57
2019-05-07T17:01:35.036Z,3.50
2019-05-07T17:04:04.134Z,4.40
2019-05-07T17:06:32.820Z,6.33
2019-05-07T17:09:09.460Z,4.43
2019-05-07T17:11:37.782Z,6.07
2019-05-07T17:14:06.170Z,6.70
2019-05-07T17:16:34.763Z,3.17
2019-05-07T17:19:03.466Z,6.57
2019-05-07T17:21:32.473Z,3.87
2019-05-07T17:24:02.523Z,5.70
2019-05-07T17:26:31.204Z,7.43
2019-05-07T17:28:59.853Z,4.60
2019-05-07T17:31:28.279Z,3.70
2019-05-07T17:33:56.659Z,5.50
2019-05-07T17:36:25.384Z,4.23
2019-05-07T17:38:53.737Z,4.93
2019-05-07T17:41:26.505Z,4.47
2019-05-07T17:43:52.264Z,3.73
2019-05-07T17:46:21.754Z,3.83
2019-05-07T17:48:52.231Z,5.30
2019-05-07T17:51:42.172Z,6.00
2019-05-07T17:54:10.105Z,6.20
2019-05-07T17:56:38.437Z,5.17
2019-05-07T17:59:07.110Z,5.00
2019-05-07T18:02:02.407Z,5.23
2019-05-07T18:04:33.760Z,7.73
2019-05-07T18:07:03.010Z,8.77
2019-05-07T18:09:31.958Z,9.30
2019-05-07T18:12:00.487Z,11.97
2019-05-07T18:14:29.079Z,11.93
2019-05-07T18:17:16.598Z,9.40
2019-05-07T18:19:47.343Z,10.00
2019-05-07T18:22:15.782Z,8.33
2019-05-07T18:24:44.229Z,7.73
2019-05-07T18:27:19.676Z,5.60
2019-05-07T18:29:48.541Z,5.40
2019-05-07T18:32:17.198Z,19.07
2019-05-07T18:34:45.880Z,6.63
2019-05-07T18:37:15.156Z,5.60
2019-05-07T18:39:43.569Z,5.30
2019-05-07T18:42:12.670Z,5.40
2019-05-07T18:44:41.791Z,4.40
2019-05-07T18:47:12.750Z,5.20
2019-05-07T18:49:42.943Z,5.70
2019-05-07T18:52:12.220Z,6.60
2019-05-07T18:54:42.851Z,5.83
2019-05-07T18:57:11.414Z,4.80
2019-05-07T18:59:42.190Z,4.90
2019-05-07T19:02:10.381Z,5.90
2019-05-07T19:04:39.243Z,10.00
2019-05-07T19:07:08.039Z,4.20
2019-05-07T19:09:36.437Z,8.40
2019-05-07T19:12:06.186Z,5.53
2019-05-07T19:14:35.280Z,7.90
2019-05-07T19:17:04.087Z,5.27
2019-05-07T19:19:32.911Z,9.70
2019-05-07T19:22:02.174Z,6.03
2019-05-07T19:24:42.265Z,7.83
2019-05-07T19:27:02.154Z,4.83
2019-05-07T19:29:32.536Z,6.37
2019-05-07T19:32:03.024Z,4.33
2019-05-07T19:34:32.436Z,4.37
2019-05-07T19:37:02.566Z,4.67
2019-05-07T19:39:32.528Z,5.27
2019-05-07T19:42:02.598Z,5.40
2019-05-07T19:44:31.373Z,5.37
2019-05-07T19:47:01.895Z,6.37
2019-05-07T19:49:32.302Z,6.10
2019-05-07T19:52:01.610Z,5.30
2019-05-07T19:54:32.304Z,5.70
2019-05-07T19:57:02.701Z,6.17
2019-05-07T19:59:32.635Z,6.83
2019-05-07T20:02:03.396Z,8.77
2019-05-07T20:04:32.207Z,7.67
2019-05-07T20:07:02.876Z,6.80
2019-05-07T20:09:34.046Z,6.40
2019-05-07T20:12:02.747Z,5.70
2019-05-07T20:14:33.035Z,5.43
2019-05-07T20:17:01.507Z,5.37
2019-05-07T20:19:32.118Z,5.87
2019-05-07T20:22:01.945Z,5.10
2019-05-07T20:24:32.395Z,5.90
2019-05-07T20:27:02.929Z,5.47
2019-05-07T20:29:32.323Z,6.33
2019-05-07T20:32:00.978Z,9.50
2019-05-07T20:34:29.730Z,5.77
2019-05-07T20:36:58.428Z,7.40
2019-05-07T20:39:26.842Z,6.27
2019-05-07T20:41:55.498Z,6.60
2019-05-07T20:44:23.850Z,6.93
2019-05-07T20:46:53.605Z,7.60
2019-05-07T20:49:22.688Z,5.30
2019-05-07T20:51:52.600Z,5.67
2019-05-07T20:54:32.507Z,7.27
2019-05-07T20:57:06.872Z,5.30
2019-05-07T20:59:35.552Z,6.57
2019-05-07T21:02:04.205Z,7.33
2019-05-07T21:04:33.141Z,6.70
2019-05-07T21:07:02.184Z,7.00
2019-05-07T21:09:32.790Z,6.03
2019-05-07T21:12:01.458Z,7.23
2019-05-07T21:14:32.454Z,6.47
2019-05-07T21:17:00.971Z,6.87
2019-05-07T21:19:29.654Z,6.60
2019-05-07T21:21:57.977Z,7.27
2019-05-07T21:24:26.782Z,9.63
2019-05-07T21:26:55.436Z,8.20
2019-05-07T21:29:24.301Z,7.70
2019-05-07T21:31:52.626Z,10.70
2019-05-07T21:34:22.849Z,6.43
2019-05-07T21:36:52.416Z,7.83
2019-05-07T21:39:22.303Z,7.30
2019-05-07T21:41:51.969Z,6.80
2019-05-07T21:44:22.775Z,6.60
2019-05-07T21:46:51.829Z,6.50
2019-05-07T21:49:22.309Z,6.70
2019-05-07T21:51:52.267Z,6.67
2019-05-07T21:54:27.369Z,6.70
2019-05-07T21:57:09.645Z,6.27
2019-05-07T21:59:38.756Z,6.80
2019-05-07T22:02:13.014Z,5.80
2019-05-07T22:04:42.184Z,6.70
2019-05-07T22:07:12.230Z,7.07
2019-05-07T22:09:40.715Z,9.63
2019-05-07T22:12:11.957Z,6.00
2019-05-07T22:14:39.795Z,8.50
2019-05-07T22:17:08.119Z,7.23
2019-05-07T22:19:36.806Z,6.87
2019-05-07T22:22:05.285Z,9.37
2019-05-07T22:24:33.612Z,6.73
2019-05-07T22:27:04.055Z,8.67
2019-05-07T22:29:32.320Z,7.10
2019-05-07T22:32:18.663Z,6.00
2019-05-07T22:34:58.024Z,8.73
2019-05-07T22:37:26.643Z,8.43
2019-05-07T22:39:54.981Z,7.47
2019-05-07T22:42:23.339Z,6.60
2019-05-07T22:44:51.983Z,8.37
2019-05-07T22:47:22.531Z,7.73
2019-05-07T22:49:53.200Z,7.53
2019-05-07T22:52:22.421Z,10.67
2019-05-07T22:54:50.937Z,8.07
2019-05-07T22:57:42.026Z,7.70
2019-05-07T23:00:14.139Z,7.63
2019-05-07T23:02:42.853Z,6.77
2019-05-07T23:05:12.206Z,7.80
2019-05-07T23:07:41.799Z,9.03
2019-05-07T23:10:11.931Z,10.10
2019-05-07T23:12:40.482Z,9.13
2019-05-07T23:15:09.418Z,7.60
2019-05-07T23:17:38.096Z,8.77
2019-05-07T23:20:06.608Z,8.53
2019-05-07T23:22:35.026Z,8.43
2019-05-07T23:25:03.358Z,9.33
2019-05-07T23:27:32.587Z,12.53
2019-05-07T23:30:02.534Z,8.57
2019-05-07T23:32:32.905Z,8.80
2019-05-07T23:35:02.068Z,9.40
2019-05-07T23:37:32.959Z,8.40
2019-05-07T23:40:03.559Z,8.80
2019-05-07T23:42:34.143Z,7.97
2019-05-07T23:45:02.549Z,9.00
2019-05-07T23:47:31.827Z,8.93
2019-05-07T23:50:02.049Z,8.40
2019-05-07T23:52:30.873Z,9.07
2019-05-07T23:54:59.455Z,8.30
2019-05-07T23:57:27.788Z,9.10
2019-05-07T23:59:56.110Z,10.47
